LFRG/DOL METAR and TAF weather

Enter ICAO airport designator
Station Type Date Time Source
LFRG METAR 2021/07/26 17:00 UTC NOAA

LFRG 261700Z AUTO 29007KT 250V330 9999 FEW039 SCT046 20/15 Q1013 NOSIG


Station Type Date Time Source
LFRG Decoded METAR 2021/07/26 17:00 UTC NOAA

Station name not available
Jul 26, 2021 - 01:00 PM EDT / 2021.07.26 1700 UTC
Wind: from the WNW (290 degrees) at 8 MPH (7 KT) (direction variable):0
Visibility: greater than 7 mile(s):0
Sky conditions: partly cloudy
Temperature: 68 F (20 C)
Dew Point: 59 F (15 C)
Relative Humidity: 72%
Pressure (altimeter): 29.91 in. Hg (1013 hPa)
ob: LFRG 261700Z AUTO 29007KT 250V330 9999 FEW039 SCT046 20/15 Q1013 NOSIG
cycle: 17

Station Type Date Time Source
LFRG TAF 2014/12/22 18:42 UTC NOAA

TAF
AMD TAF
AMD LFRG 221837Z 2218/2221 25015KT 9999 OVC015
TEMPO 2218/2221 BKN007 PROB30
TEMPO 2218/2221 25015G25KT 4000 DZ BKN003

Example: see airport list